createdAt,value
2022-09-13T00:01:32.777Z,11.90
2022-09-13T00:04:04.352Z,12.43
2022-09-13T00:06:33.517Z,11.25
2022-09-13T00:09:02.756Z,11.13
2022-09-13T00:11:32.905Z,10.93
2022-09-13T00:14:02.022Z,10.05
2022-09-13T00:16:32.004Z,9.00
2022-09-13T00:19:02.734Z,9.27
2022-09-13T00:21:32.038Z,8.50
2022-09-13T00:24:01.110Z,9.02
2022-09-13T00:26:31.355Z,8.55
2022-09-13T00:29:01.146Z,9.40
2022-09-13T00:31:30.672Z,8.88
2022-09-13T00:34:00.808Z,9.02
2022-09-13T00:36:32.343Z,9.65
2022-09-13T00:39:01.726Z,8.65
2022-09-13T00:41:30.841Z,9.23
2022-09-13T00:44:02.708Z,8.93
2022-09-13T00:46:38.740Z,9.27
2022-09-13T00:49:16.236Z,8.93
2022-09-13T00:54:23.930Z,7.82
2022-09-13T00:56:57.421Z,7.78
2022-09-13T00:59:34.113Z,7.68
2022-09-13T01:02:04.617Z,7.97
2022-09-13T01:04:36.819Z,7.55
2022-09-13T01:07:10.963Z,8.07
2022-09-13T01:09:45.565Z,7.70
2022-09-13T01:12:26.541Z,8.20
2022-09-13T01:15:00.717Z,8.88
2022-09-13T01:17:31.354Z,8.25
2022-09-13T01:20:01.746Z,9.20
2022-09-13T01:23:23.699Z,10.38
2022-09-13T01:26:52.763Z,8.88
2022-09-13T01:29:51.501Z,7.93
2022-09-13T01:35:05.634Z,7.53
2022-09-13T01:37:52.155Z,8.40
2022-09-13T01:40:44.253Z,8.05
2022-09-13T01:43:32.552Z,7.78
2022-09-13T01:46:07.598Z,7.53
2022-09-13T01:48:56.525Z,7.78
2022-09-13T01:51:34.556Z,7.78
2022-09-13T01:54:16.718Z,7.60
2022-09-13T01:56:57.189Z,7.50
2022-09-13T01:59:40.082Z,7.72
2022-09-13T02:02:18.281Z,7.63
2022-09-13T02:04:54.917Z,7.72
2022-09-13T02:07:30.493Z,7.20
2022-09-13T02:10:08.549Z,8.63
2022-09-13T02:12:42.078Z,7.88
2022-09-13T02:15:17.697Z,7.63
2022-09-13T02:17:53.367Z,9.43
2022-09-13T02:20:30.167Z,8.80
2022-09-13T02:23:03.573Z,8.82
2022-09-13T02:25:37.312Z,8.38
2022-09-13T02:28:10.992Z,7.57
2022-09-13T02:30:45.879Z,7.90
2022-09-13T02:33:19.636Z,8.70
2022-09-13T02:35:54.881Z,7.75
2022-09-13T02:38:30.593Z,8.93
2022-09-13T02:41:07.081Z,8.55
2022-09-13T02:43:41.923Z,7.88
2022-09-13T02:46:31.224Z,8.05
2022-09-13T02:49:13.245Z,7.18
2022-09-13T02:51:53.633Z,7.82
2022-09-13T02:54:31.798Z,8.38
2022-09-13T02:57:07.593Z,7.97
2022-09-13T02:59:36.847Z,6.93
2022-09-13T03:02:09.958Z,7.05
2022-09-13T03:04:41.164Z,7.00
2022-09-13T03:07:14.663Z,7.00
2022-09-13T03:09:50.350Z,6.30
2022-09-13T03:12:50.862Z,7.47
2022-09-13T03:15:33.197Z,6.47
2022-09-13T03:18:18.358Z,6.55
2022-09-13T03:21:02.369Z,6.30
2022-09-13T03:23:55.955Z,7.00
2022-09-13T03:26:36.712Z,6.78
2022-09-13T03:29:29.286Z,7.60
2022-09-13T03:32:11.118Z,6.93
2022-09-13T03:34:50.440Z,6.95
2022-09-13T03:37:32.691Z,7.80
2022-09-13T03:40:10.823Z,7.82
2022-09-13T03:42:46.915Z,7.72
2022-09-13T03:45:19.038Z,8.00
2022-09-13T03:47:53.349Z,7.10
2022-09-13T03:50:25.258Z,7.28
2022-09-13T03:52:59.873Z,8.65
2022-09-13T03:55:31.415Z,8.38
2022-09-13T03:58:01.274Z,7.93
2022-09-13T04:00:30.794Z,7.72
2022-09-13T04:02:59.818Z,8.80
2022-09-13T04:05:28.909Z,8.52
2022-09-13T04:07:57.977Z,8.30
2022-09-13T04:10:27.245Z,8.38
2022-09-13T04:12:57.908Z,7.78
2022-09-13T04:15:32.385Z,7.47
2022-09-13T04:18:02.294Z,8.27
2022-09-13T04:20:32.661Z,7.97
2022-09-13T04:23:08.795Z,9.10
2022-09-13T04:25:41.678Z,10.70
2022-09-13T04:28:12.307Z,10.30
2022-09-13T04:30:45.947Z,9.63
2022-09-13T04:33:19.677Z,8.80
2022-09-13T04:35:49.191Z,9.07
2022-09-13T04:38:18.298Z,8.98
2022-09-13T04:40:54.895Z,8.80
2022-09-13T04:43:25.748Z,8.90
2022-09-13T04:45:54.911Z,9.05
2022-09-13T04:48:24.006Z,8.80
2022-09-13T04:50:53.351Z,8.63
2022-09-13T04:53:22.501Z,7.85
2022-09-13T04:55:51.620Z,7.88
2022-09-13T04:58:22.257Z,9.15
2022-09-13T05:00:56.924Z,9.82
2022-09-13T05:03:26.086Z,9.68
2022-09-13T05:05:56.228Z,8.50
2022-09-13T05:08:25.268Z,8.60
2022-09-13T05:10:54.345Z,8.55
2022-09-13T05:13:23.453Z,8.85
2022-09-13T05:15:57.633Z,8.45
2022-09-13T05:18:27.945Z,9.43
2022-09-13T05:20:57.962Z,9.82
2022-09-13T05:23:29.291Z,8.88
2022-09-13T05:26:00.213Z,8.35
2022-09-13T05:28:31.403Z,8.52
2022-09-13T05:31:08.230Z,7.65
2022-09-13T05:33:39.640Z,10.25
2022-09-13T05:36:09.081Z,27.10
2022-09-13T05:38:38.266Z,24.63
2022-09-13T05:41:08.016Z,21.77
2022-09-13T05:43:38.392Z,17.00
2022-09-13T05:46:12.435Z,13.98
2022-09-13T05:48:42.528Z,12.60
2022-09-13T05:51:14.350Z,11.35
2022-09-13T05:53:45.921Z,9.07
2022-09-13T05:56:17.382Z,9.50
2022-09-13T05:58:48.492Z,9.05
2022-09-13T06:01:22.174Z,8.65
2022-09-13T06:03:52.892Z,9.70
2022-09-13T06:06:24.007Z,12.38
2022-09-13T06:08:54.799Z,10.75
2022-09-13T06:11:24.647Z,11.00
2022-09-13T06:13:54.371Z,10.35
2022-09-13T06:16:24.945Z,9.85
2022-09-13T06:18:54.070Z,8.80
2022-09-13T06:21:28.413Z,9.13
2022-09-13T06:23:58.330Z,8.65
2022-09-13T06:26:29.381Z,8.18
2022-09-13T06:29:03.625Z,7.20
2022-09-13T06:31:34.215Z,7.95
2022-09-13T06:34:03.789Z,7.75
2022-09-13T06:36:41.590Z,7.53
2022-09-13T06:39:11.095Z,9.48
2022-09-13T06:41:40.468Z,8.05
2022-09-13T06:44:10.590Z,7.40
2022-09-13T06:46:41.483Z,8.05
2022-09-13T06:49:11.844Z,8.02
2022-09-13T06:51:40.918Z,8.57
2022-09-13T06:54:10.022Z,8.32
2022-09-13T06:56:40.206Z,7.18
2022-09-13T06:59:11.667Z,7.68
2022-09-13T07:01:44.843Z,7.82
2022-09-13T07:04:16.909Z,7.22
2022-09-13T07:06:48.378Z,7.97
2022-09-13T07:09:21.312Z,7.88
2022-09-13T07:11:52.556Z,7.82
2022-09-13T07:14:24.770Z,7.68
2022-09-13T07:16:56.079Z,7.45
2022-09-13T07:19:27.721Z,7.82
2022-09-13T07:21:58.408Z,7.45
2022-09-13T07:24:29.861Z,8.13
2022-09-13T07:26:59.390Z,7.32
2022-09-13T07:29:28.917Z,7.18
2022-09-13T07:31:59.344Z,7.10
2022-09-13T07:34:28.599Z,7.78
2022-09-13T07:36:57.604Z,7.32
2022-09-13T07:39:27.153Z,9.65
2022-09-13T07:41:56.197Z,10.23
2022-09-13T07:44:25.675Z,7.68
2022-09-13T07:46:54.908Z,6.88
2022-09-13T07:49:25.656Z,6.55
2022-09-13T07:51:54.811Z,7.03
2022-09-13T07:54:23.874Z,6.25
2022-09-13T07:56:52.955Z,5.95
2022-09-13T07:59:23.428Z,6.13
2022-09-13T08:01:54.074Z,6.03
2022-09-13T08:04:26.780Z,6.55
2022-09-13T08:06:56.108Z,6.03
2022-09-13T08:09:26.529Z,6.28
2022-09-13T08:11:55.556Z,6.88
2022-09-13T08:14:25.284Z,6.68
2022-09-13T08:16:57.803Z,6.18
2022-09-13T08:19:28.584Z,6.00
2022-09-13T08:21:57.598Z,6.10
2022-09-13T08:24:26.821Z,5.75
2022-09-13T08:26:57.020Z,5.18
2022-09-13T08:29:26.497Z,5.90
2022-09-13T08:31:55.504Z,5.72
2022-09-13T08:34:24.756Z,5.30
2022-09-13T08:36:58.257Z,5.40
2022-09-13T08:39:29.259Z,5.25
2022-09-13T08:42:18.426Z,4.95
2022-09-13T08:47:41.789Z,4.63
2022-09-13T08:50:18.862Z,4.80
2022-09-13T08:53:03.086Z,4.75
2022-09-13T08:56:04.542Z,4.60
2022-09-13T08:58:52.820Z,5.20
2022-09-13T09:01:44.746Z,4.72
2022-09-13T09:04:39.161Z,4.95
2022-09-13T09:07:16.090Z,4.63
2022-09-13T09:09:53.454Z,3.88
2022-09-13T09:15:06.993Z,4.28
2022-09-13T09:17:50.399Z,3.92
2022-09-13T09:20:32.039Z,4.72
2022-09-13T09:23:07.335Z,4.00
2022-09-13T09:25:37.898Z,3.65
2022-09-13T09:28:14.648Z,3.47
2022-09-13T09:30:54.848Z,3.40
2022-09-13T09:33:51.138Z,3.92
2022-09-13T09:36:34.508Z,3.65
2022-09-13T09:39:05.814Z,3.42
2022-09-13T09:41:38.508Z,3.65
2022-09-13T09:44:19.840Z,3.40
2022-09-13T09:46:53.174Z,3.35
2022-09-13T09:49:50.944Z,3.40
2022-09-13T09:52:28.373Z,3.70
2022-09-13T09:57:53.688Z,3.40
2022-09-13T10:00:26.089Z,3.78
2022-09-13T10:02:59.785Z,3.83
2022-09-13T10:05:30.405Z,3.28
2022-09-13T10:08:03.973Z,3.60
2022-09-13T10:10:42.713Z,3.47
2022-09-13T10:13:19.926Z,3.45
2022-09-13T10:15:58.218Z,3.30
2022-09-13T10:18:45.428Z,3.22
2022-09-13T10:21:26.408Z,3.20
2022-09-13T10:24:22.652Z,4.05
2022-09-13T10:26:52.105Z,3.08
2022-09-13T10:29:21.240Z,3.35
2022-09-13T10:31:53.780Z,3.08
2022-09-13T10:34:28.448Z,3.10
2022-09-13T10:37:01.371Z,3.40
2022-09-13T10:39:37.008Z,3.42
2022-09-13T10:42:09.589Z,3.03
2022-09-13T10:44:42.962Z,3.50
2022-09-13T10:47:19.572Z,2.85
2022-09-13T10:49:55.695Z,2.90
2022-09-13T10:52:32.616Z,2.85
2022-09-13T10:55:34.169Z,3.33
2022-09-13T10:58:21.455Z,3.17
2022-09-13T11:01:42.199Z,3.33
2022-09-13T11:04:46.519Z,3.17
2022-09-13T11:07:58.930Z,3.03
2022-09-13T11:10:36.516Z,2.53
2022-09-13T11:13:23.266Z,3.10
2022-09-13T11:16:05.062Z,2.90
2022-09-13T11:19:09.771Z,2.40
2022-09-13T11:21:55.521Z,2.38
2022-09-13T11:25:04.678Z,3.05
2022-09-13T11:27:46.209Z,2.58
2022-09-13T11:30:19.608Z,2.58
2022-09-13T11:33:24.177Z,2.75
2022-09-13T11:36:32.563Z,2.47
2022-09-13T11:39:14.638Z,2.42
2022-09-13T11:41:54.921Z,2.80
2022-09-13T11:45:03.053Z,2.75
2022-09-13T11:47:48.617Z,2.83
2022-09-13T11:50:30.953Z,2.92
2022-09-13T11:53:27.050Z,2.85
2022-09-13T11:56:03.557Z,2.60
2022-09-13T11:58:43.958Z,2.97
2022-09-13T12:01:22.989Z,2.75
2022-09-13T12:04:01.096Z,2.83
2022-09-13T12:06:35.543Z,2.88
2022-09-13T12:09:13.867Z,2.83
2022-09-13T12:11:48.634Z,2.30
2022-09-13T12:14:22.773Z,2.67
2022-09-13T12:16:57.260Z,2.78
2022-09-13T12:19:35.090Z,2.88
2022-09-13T12:22:12.568Z,2.53
2022-09-13T12:24:46.979Z,2.50
2022-09-13T12:27:30.312Z,2.40
2022-09-13T12:30:08.415Z,2.70
2022-09-13T12:32:40.351Z,2.65
2022-09-13T12:35:17.819Z,2.30
2022-09-13T12:38:31.657Z,2.40
2022-09-13T12:41:36.956Z,2.88
2022-09-13T12:44:54.135Z,2.45
2022-09-13T12:47:58.756Z,2.80
2022-09-13T12:51:07.248Z,2.72
2022-09-13T12:54:15.971Z,2.53
2022-09-13T12:57:01.153Z,2.78
2022-09-13T12:59:51.966Z,2.08
2022-09-13T13:02:31.165Z,2.42
2022-09-13T13:05:05.733Z,2.42
2022-09-13T13:07:38.224Z,2.50
2022-09-13T13:10:23.122Z,2.55
2022-09-13T13:12:52.500Z,2.50
2022-09-13T13:16:01.291Z,2.70
2022-09-13T13:18:44.333Z,2.63
2022-09-13T13:21:40.601Z,2.42
2022-09-13T13:24:47.511Z,2.38
2022-09-13T13:27:48.606Z,2.70
2022-09-13T13:30:52.892Z,2.30
2022-09-13T13:33:27.208Z,3.00
2022-09-13T13:35:56.557Z,2.90
2022-09-13T13:38:51.796Z,2.47
2022-09-13T13:41:55.395Z,2.35
2022-09-13T13:45:28.276Z,2.55
2022-09-13T13:48:16.289Z,2.50
2022-09-13T13:51:25.775Z,2.40
2022-09-13T13:54:05.720Z,3.00
2022-09-13T13:56:48.937Z,2.47
2022-09-13T13:59:28.178Z,2.60
2022-09-13T14:02:01.846Z,2.80
2022-09-13T14:05:10.090Z,3.00
2022-09-13T14:08:03.818Z,2.87
2022-09-13T14:10:46.562Z,2.80
2022-09-13T14:13:37.448Z,3.00
2022-09-13T14:16:17.521Z,3.50
2022-09-13T14:19:24.211Z,2.42
2022-09-13T14:22:22.788Z,2.70
2022-09-13T14:24:54.193Z,2.50
2022-09-13T14:27:30.627Z,2.60
2022-09-13T14:30:03.373Z,2.77
2022-09-13T14:32:45.811Z,2.60
2022-09-13T14:35:27.725Z,2.20
2022-09-13T14:37:57.476Z,2.80
2022-09-13T14:40:28.816Z,2.15
2022-09-13T14:42:59.493Z,1.98
2022-09-13T14:45:35.689Z,2.63
2022-09-13T14:48:10.816Z,2.25
2022-09-13T14:50:47.170Z,2.58
2022-09-13T14:53:19.889Z,2.53
2022-09-13T14:55:55.175Z,2.47
2022-09-13T14:58:29.810Z,2.33
2022-09-13T15:01:02.046Z,2.70
2022-09-13T15:03:31.648Z,2.47
2022-09-13T15:06:03.460Z,2.60
2022-09-13T15:08:47.818Z,2.33
2022-09-13T15:11:29.395Z,2.40
2022-09-13T15:14:25.755Z,2.08
2022-09-13T15:17:00.796Z,2.47
2022-09-13T15:19:36.465Z,2.70
2022-09-13T15:22:21.990Z,2.67
2022-09-13T15:24:54.904Z,2.30
2022-09-13T15:27:28.497Z,2.10
2022-09-13T15:30:03.010Z,2.60
2022-09-13T15:32:35.901Z,2.70
2022-09-13T15:35:05.414Z,2.47
2022-09-13T15:37:38.433Z,2.70
2022-09-13T15:40:17.714Z,2.42
2022-09-13T15:42:49.455Z,2.95
2022-09-13T15:45:22.381Z,2.65
2022-09-13T15:47:53.741Z,2.60
2022-09-13T15:50:29.198Z,2.80
2022-09-13T15:53:00.078Z,2.60
2022-09-13T15:55:29.994Z,2.63
2022-09-13T15:57:59.065Z,3.00
2022-09-13T16:00:29.787Z,2.65
2022-09-13T16:03:00.085Z,2.90
2022-09-13T16:05:29.303Z,2.78
2022-09-13T16:07:59.352Z,3.22
2022-09-13T16:10:31.550Z,2.80
2022-09-13T16:13:00.625Z,3.45
2022-09-13T16:15:31.634Z,3.70
2022-09-13T16:18:00.698Z,3.55
2022-09-13T16:20:30.198Z,3.35
2022-09-13T16:22:59.465Z,3.17
2022-09-13T16:25:28.548Z,3.42
2022-09-13T16:27:58.394Z,2.60
2022-09-13T16:30:30.560Z,3.42
2022-09-13T16:33:01.687Z,3.10
2022-09-13T16:35:33.072Z,2.85
2022-09-13T16:38:02.292Z,3.10
2022-09-13T16:40:31.638Z,3.10
2022-09-13T16:43:06.046Z,3.10
2022-09-13T16:45:35.862Z,3.35
2022-09-13T16:48:06.340Z,3.20
2022-09-13T16:50:36.107Z,3.00
2022-09-13T16:53:05.177Z,3.10
2022-09-13T16:55:34.417Z,3.25
2022-09-13T16:58:03.575Z,3.90
2022-09-13T17:00:33.013Z,3.38
2022-09-13T17:03:02.423Z,3.60
2022-09-13T17:05:33.075Z,4.07
2022-09-13T17:08:02.517Z,3.88
2022-09-13T17:10:31.921Z,4.00
2022-09-13T17:13:01.084Z,3.90
2022-09-13T17:15:30.760Z,3.95
2022-09-13T17:18:00.025Z,3.70
2022-09-13T17:20:29.228Z,3.50
2022-09-13T17:23:00.479Z,4.25
2022-09-13T17:25:29.724Z,4.05
2022-09-13T17:27:59.242Z,4.20
2022-09-13T17:30:28.555Z,4.20
2022-09-13T17:33:00.014Z,4.03
2022-09-13T17:35:30.230Z,3.90
2022-09-13T17:38:01.775Z,4.05
2022-09-13T17:40:32.965Z,3.90
2022-09-13T17:43:02.743Z,4.13
2022-09-13T17:45:31.812Z,4.45
2022-09-13T17:48:00.852Z,3.97
2022-09-13T17:50:30.101Z,4.57
2022-09-13T17:53:00.726Z,4.30
2022-09-13T17:55:29.946Z,4.03
2022-09-13T17:57:59.093Z,3.85
2022-09-13T18:00:28.913Z,4.35
2022-09-13T18:02:58.251Z,4.55
2022-09-13T18:05:27.690Z,4.35
2022-09-13T18:07:57.405Z,4.30
2022-09-13T18:10:49.214Z,4.65
2022-09-13T18:13:17.473Z,4.32
2022-09-13T18:15:46.579Z,4.82
2022-09-13T18:18:15.720Z,4.68
2022-09-13T18:20:47.519Z,4.57
2022-09-13T18:23:16.729Z,4.25
2022-09-13T18:26:02.607Z,4.53
2022-09-13T18:28:34.459Z,4.60
2022-09-13T18:31:07.118Z,4.72
2022-09-13T18:33:36.851Z,5.32
2022-09-13T18:36:10.008Z,4.40
2022-09-13T18:38:41.953Z,4.60
2022-09-13T18:41:14.940Z,5.20
2022-09-13T18:43:48.845Z,5.05
2022-09-13T18:46:23.829Z,4.70
2022-09-13T18:48:54.736Z,4.65
2022-09-13T18:51:27.251Z,4.43
2022-09-13T18:53:57.109Z,4.90
2022-09-13T18:56:28.843Z,5.60
2022-09-13T18:59:00.377Z,5.18
2022-09-13T19:01:32.833Z,5.10
2022-09-13T19:04:07.500Z,4.70
2022-09-13T19:06:45.678Z,4.68
2022-09-13T19:09:16.385Z,4.65
2022-09-13T19:11:49.655Z,4.72
2022-09-13T19:14:21.788Z,4.30
2022-09-13T19:16:52.348Z,4.70
2022-09-13T19:19:25.463Z,5.75
2022-09-13T19:21:58.192Z,5.70
2022-09-13T19:24:27.632Z,5.40
2022-09-13T19:26:58.338Z,15.60
2022-09-13T19:29:27.773Z,9.05
2022-09-13T19:31:57.433Z,8.85
2022-09-13T19:34:27.050Z,6.82
2022-09-13T19:37:00.420Z,5.95
2022-09-13T19:39:30.758Z,5.50
2022-09-13T19:42:02.406Z,4.93
2022-09-13T19:44:31.649Z,4.93
2022-09-13T19:49:56.756Z,5.13
2022-09-13T19:52:26.914Z,5.07
2022-09-13T19:54:58.989Z,5.25
2022-09-13T19:57:29.588Z,4.97
2022-09-13T19:59:58.788Z,4.95
2022-09-13T20:02:27.939Z,5.20
2022-09-13T20:04:57.018Z,5.20
2022-09-13T20:07:26.126Z,5.53
2022-09-13T20:09:55.151Z,5.88
2022-09-13T20:12:24.221Z,5.60
2022-09-13T20:14:54.796Z,5.22
2022-09-13T20:17:25.623Z,5.70
2022-09-13T20:19:55.039Z,5.80
2022-09-13T20:22:25.616Z,5.53
2022-09-13T20:24:54.841Z,5.65
2022-09-13T20:27:26.849Z,6.13
2022-09-13T20:30:00.981Z,5.65
2022-09-13T20:32:30.056Z,6.10
2022-09-13T20:34:59.323Z,5.88
2022-09-13T20:37:28.494Z,6.30
2022-09-13T20:39:57.534Z,6.50
2022-09-13T20:42:26.712Z,6.25
2022-09-13T20:44:55.812Z,6.18
2022-09-13T20:47:26.352Z,6.03
2022-09-13T20:49:55.527Z,5.82
2022-09-13T20:52:24.814Z,5.65
2022-09-13T20:54:53.847Z,6.15
2022-09-13T20:57:22.985Z,5.97
2022-09-13T20:59:52.701Z,6.43
2022-09-13T21:02:22.324Z,6.22
2022-09-13T21:04:52.796Z,6.38
2022-09-13T21:07:39.297Z,6.53
2022-09-13T21:10:09.625Z,6.95
2022-09-13T21:12:38.932Z,7.78
2022-09-13T21:15:09.399Z,7.07
2022-09-13T21:17:38.565Z,6.40
2022-09-13T21:20:10.187Z,7.35
2022-09-13T21:22:39.504Z,6.50
2022-09-13T21:25:09.936Z,6.32
2022-09-13T21:27:38.952Z,6.68
2022-09-13T21:30:09.218Z,6.05
2022-09-13T21:32:38.302Z,5.65
2022-09-13T21:35:10.393Z,5.95
2022-09-13T21:37:39.436Z,5.47
2022-09-13T21:40:10.251Z,5.75
2022-09-13T21:42:39.389Z,5.70
2022-09-13T21:45:10.220Z,5.88
2022-09-13T21:47:39.373Z,6.65
2022-09-13T21:50:11.195Z,6.25
2022-09-13T21:52:40.650Z,7.05
2022-09-13T21:55:10.496Z,7.00
2022-09-13T21:57:39.557Z,7.43
2022-09-13T22:00:12.723Z,7.45
2022-09-13T22:02:43.780Z,6.82
2022-09-13T22:05:14.785Z,7.38
2022-09-13T22:07:43.903Z,7.97
2022-09-13T22:10:13.081Z,6.68
2022-09-13T22:12:42.130Z,6.57
2022-09-13T22:15:12.317Z,6.68
2022-09-13T22:17:41.481Z,6.80
2022-09-13T22:20:11.325Z,6.88
2022-09-13T22:22:41.799Z,6.72
2022-09-13T22:25:11.255Z,6.32
2022-09-13T22:27:40.373Z,6.22
2022-09-13T22:30:10.977Z,6.60
2022-09-13T22:32:40.190Z,6.88
2022-09-13T22:35:10.781Z,7.07
2022-09-13T22:37:41.213Z,7.00
2022-09-13T22:40:12.189Z,7.30
2022-09-13T22:42:41.303Z,7.28
2022-09-13T22:45:11.298Z,7.60
2022-09-13T22:47:40.298Z,8.10
2022-09-13T22:50:10.443Z,8.48
2022-09-13T22:52:39.490Z,7.95
2022-09-13T22:55:10.646Z,7.45
2022-09-13T22:57:39.668Z,7.65
2022-09-13T23:00:11.605Z,7.63
2022-09-13T23:02:45.169Z,7.65
2022-09-13T23:05:17.042Z,8.68
2022-09-13T23:07:46.106Z,8.18
2022-09-13T23:10:16.773Z,10.23
2022-09-13T23:12:46.340Z,9.93
2022-09-13T23:15:15.528Z,10.02
2022-09-13T23:17:44.617Z,9.20
2022-09-13T23:20:13.820Z,9.70
2022-09-13T23:22:42.832Z,8.85
2022-09-13T23:25:11.901Z,8.00
2022-09-13T23:27:42.305Z,8.45
2022-09-13T23:30:12.793Z,8.52
2022-09-13T23:32:41.920Z,8.45
2022-09-13T23:35:12.085Z,7.47
2022-09-13T23:37:41.225Z,7.50
2022-09-13T23:40:11.419Z,8.57
2022-09-13T23:42:41.968Z,8.18
2022-09-13T23:45:12.825Z,7.65
2022-09-13T23:47:41.895Z,7.28
2022-09-13T23:50:11.876Z,8.15
2022-09-13T23:52:41.065Z,7.53
2022-09-13T23:55:14.284Z,7.88
2022-09-13T23:57:44.829Z,8.38
